Halifax (YHZ/CYHZ)

Map

Destinations

Information

Location
Halifax, Nova Scotia, Canada
Local Time
20:35 / 8:35 pm
GMT Time
23:35 / 11:35 pm
Gates
5
No FAA reported delays
METAR CYHZ 232300Z 27005KT 15SM SKC 21/20 A2997 RMK SLP150 DENSITY ALT 1300FT
TAF TAF CYHZ 232038Z 2321/2418 25008KT P6SM FEW020 FM240000 VRB03KT 6SM BR SCT003 PROB30 2401/2406 3/4SM BR OVC003 FM240600 12005KT 1/2SM FG VV002 FM241200 16005KT 3/4SM BR OVC003 FM241500 20008KT 6SM BR OVC006 FM241700 20008KT P6SM SCT015 RMK NXT FCST BY 240000Z